Disclaimer

Please do not use the information listed here in-flight or in-navigation, as they are not provided to us by the airports but are provided by volunteers, so they might be outdated.

Search


Regions


Airport information page

Radio informations:
KRUG - 126.9 MHz
Approach (APP) - 126.9 MHz

Airport informations:
Latitude: 43° 30' 46.28" N
Longitude: 043° 38' 11.70" E
Elevation: 1462 feet - 446 meters
Operating hours: 24 hour operations
Operating agency: Civil government, landing fees and diplomatic clearance may be required
Timezone: UTC+3(+4DT) - Last Sunday in March to last Sunday in October
Fuel: N/A

Runway information:
06/24 - 7218 x 138 feet< - >2200 x 42 meters

Recent METARs:
URMN 180600Z 02001MPS 2500 BR SCT/// OVC/// 02/02 Q1022 R24/210155 NOSIG RMK QFE730
URMN 180630Z 02001MPS 2500 BR SCT/// OVC/// 03/02 Q1022 R24/210155 NOSIG RMK QFE730
URMN 180700Z 01001MPS 2500 BR OVC006 03/02 Q1023 R24/210155 TEMPO 0400 FG OVC002 RMK MT OBSC QFE730

Airport on the map: